Time,TemperatureF,DewpointF,PressureIn,WindDirection,WindDirectionDegrees,WindSpeedMPH,WindSpeedGustMPH,Humidity,HourlyPrecipIn,Conditions,Clouds,dailyrainin,SoftwareType,DateUTC
2013-04-17 00:01:00,36.0,33.0,30.42,ESE,111,0.0,0.0,90,0.00,,,0.14,,2013-04-17 07:01:00,
2013-04-17 00:11:00,36.0,33.0,30.42,ESE,111,0.0,0.0,90,0.00,,,0.14,,2013-04-17 07:11:00,
2013-04-17 00:21:00,36.0,34.0,30.42,North,349,0.0,0.0,91,0.00,,,0.14,,2013-04-17 07:21:00,
2013-04-17 00:32:00,34.0,32.0,30.42,ESE,107,0.0,0.0,91,0.00,,,0.14,,2013-04-17 07:32:00,
2013-04-17 00:42:00,34.0,32.0,30.42,ESE,107,0.0,0.0,91,0.00,,,0.14,,2013-04-17 07:42:00,
2013-04-17 00:52:00,34.0,32.0,30.42,WSW,248,0.0,0.0,91,0.00,,,0.14,,2013-04-17 07:52:00,
2013-04-17 01:01:00,34.0,32.0,30.42,WSW,253,0.0,0.0,91,0.00,,,0.14,,2013-04-17 08:01:00,
2013-04-17 01:11:00,34.0,32.0,30.42,WSW,253,0.0,0.0,91,0.00,,,0.14,,2013-04-17 08:11:00,
2013-04-17 01:21:00,32.0,30.0,30.42,East,82,0.0,0.0,91,0.00,,,0.14,,2013-04-17 08:21:00,
2013-04-17 01:32:00,32.0,30.0,30.42,ESE,114,0.0,0.0,92,0.00,,,0.14,,2013-04-17 08:32:00,
2013-04-17 01:41:00,32.0,30.0,30.42,ESE,114,0.0,0.0,92,0.00,,,0.14,,2013-04-17 08:41:00,
2013-04-17 01:52:00,32.0,30.0,30.43,NE,54,0.0,0.0,92,0.00,,,0.14,,2013-04-17 08:52:00,
2013-04-17 02:01:00,32.0,30.0,30.43,East,99,0.0,0.0,92,0.00,,,0.14,,2013-04-17 09:01:00,
2013-04-17 02:11:00,32.0,30.0,30.43,East,99,0.0,0.0,92,0.00,,,0.14,,2013-04-17 09:11:00,
2013-04-17 02:21:00,30.0,28.0,30.45,ESE,122,0.0,0.0,92,0.00,,,0.14,,2013-04-17 09:21:00,
2013-04-17 02:32:00,31.0,29.0,30.45,ENE,74,0.0,0.0,93,0.00,,,0.13,,2013-04-17 09:32:00,
2013-04-17 02:42:00,31.0,29.0,30.45,ENE,74,0.0,0.0,93,0.00,,,0.13,,2013-04-17 09:42:00,
2013-04-17 02:52:00,31.0,29.0,30.43,South,179,0.0,0.0,93,0.00,,,0.13,,2013-04-17 09:52:00,
2013-04-17 03:02:00,31.0,29.0,30.43,East,80,0.0,0.0,92,0.00,,,0.13,,2013-04-17 10:02:00,
2013-04-17 03:12:00,31.0,29.0,30.43,East,80,0.0,0.0,92,0.00,,,0.13,,2013-04-17 10:12:00,
2013-04-17 03:22:00,30.0,28.0,30.43,South,180,0.0,0.0,92,0.00,,,0.12,,2013-04-17 10:22:00,
2013-04-17 03:32:00,30.0,28.0,30.43,ESE,102,0.0,0.0,92,0.00,,,0.07,,2013-04-17 10:32:00,
2013-04-17 03:42:00,30.0,28.0,30.43,ESE,102,0.0,0.0,92,0.00,,,0.07,,2013-04-17 10:42:00,
2013-04-17 03:52:00,30.0,28.0,30.45,SSW,213,0.0,0.0,93,0.00,,,0.07,,2013-04-17 10:52:00,
2013-04-17 04:02:00,30.0,28.0,30.45,East,90,0.0,2.0,93,0.00,,,0.07,,2013-04-17 11:02:00,
2013-04-17 04:11:00,30.0,28.0,30.45,East,90,0.0,2.0,93,0.00,,,0.07,,2013-04-17 11:11:00,
2013-04-17 04:21:00,30.0,28.0,30.45,SW,225,0.0,0.0,93,0.00,,,0.07,,2013-04-17 11:21:00,
2013-04-17 04:31:00,29.0,27.0,30.45,SW,225,0.0,0.0,93,0.00,,,0.07,,2013-04-17 11:31:00,
2013-04-17 04:42:00,29.0,27.0,30.45,SW,225,0.0,0.0,93,0.00,,,0.07,,2013-04-17 11:42:00,
2013-04-17 04:52:00,30.0,28.0,30.45,SW,225,0.0,1.0,93,0.00,,,0.07,,2013-04-17 11:52:00,
2013-04-17 05:02:00,30.0,28.0,30.45,SW,225,0.0,0.0,93,0.00,,,0.07,,2013-04-17 12:02:00,
2013-04-17 05:12:00,30.0,28.0,30.45,SW,225,0.0,0.0,93,0.00,,,0.07,,2013-04-17 12:12:00,
2013-04-17 05:22:00,30.0,28.0,30.45,SW,225,0.0,0.0,93,0.00,,,0.07,,2013-04-17 12:22:00,
2013-04-17 05:32:00,30.0,28.0,30.45,SW,225,0.0,0.0,93,0.00,,,0.06,,2013-04-17 12:32:00,
2013-04-17 05:42:00,30.0,28.0,30.45,SW,225,0.0,0.0,93,0.00,,,0.06,,2013-04-17 12:42:00,
2013-04-17 05:52:00,31.0,29.0,30.47,SW,225,0.0,0.0,93,0.00,,,0.06,,2013-04-17 12:52:00,
2013-04-17 06:01:00,31.0,29.0,30.47,SW,225,0.0,0.0,93,0.00,,,0.05,,2013-04-17 13:01:00,
2013-04-17 06:11:00,31.0,29.0,30.47,SW,225,0.0,0.0,93,0.00,,,0.05,,2013-04-17 13:11:00,
2013-04-17 06:22:00,32.0,30.0,30.47,SW,225,0.0,0.0,93,0.00,,,0.05,,2013-04-17 13:22:00,
2013-04-17 06:32:00,32.0,30.0,30.47,SE,139,1.0,1.0,93,0.00,,,0.01,,2013-04-17 13:32:00,
2013-04-17 06:41:00,32.0,30.0,30.47,SE,139,1.0,1.0,93,0.00,,,0.01,,2013-04-17 13:41:00,
2013-04-17 06:52:00,32.0,30.0,30.48,East,88,0.0,2.0,94,0.00,,,0.01,,2013-04-17 13:52:00,
2013-04-17 07:01:00,32.0,30.0,30.48,SSE,156,0.0,0.0,93,0.00,,,0.01,,2013-04-17 14:01:00,
2013-04-17 07:11:00,32.0,30.0,30.48,SSE,156,0.0,0.0,93,0.00,,,0.01,,2013-04-17 14:11:00,
2013-04-17 07:21:00,33.0,31.0,30.50,SE,134,0.0,1.0,94,0.00,,,0.01,,2013-04-17 14:21:00,
2013-04-17 07:32:00,34.0,32.0,30.50,SSE,156,0.0,0.0,94,0.00,,,0.01,,2013-04-17 14:32:00,
2013-04-17 07:41:00,34.0,32.0,30.50,SSE,156,0.0,0.0,94,0.00,,,0.01,,2013-04-17 14:41:00,
2013-04-17 07:52:00,34.0,32.0,30.50,SSE,156,0.0,0.0,94,0.00,,,0.01,,2013-04-17 14:52:00,
2013-04-17 08:02:00,38.0,37.0,30.50,ENE,70,0.0,0.0,95,0.00,,,0.01,,2013-04-17 15:02:00,
2013-04-17 08:11:00,38.0,36.0,30.50,ENE,76,2.0,3.0,91,0.00,,,0.01,,2013-04-17 15:11:00,
2013-04-17 08:21:00,38.0,36.0,30.50,ENE,76,2.0,3.0,91,0.00,,,0.01,,2013-04-17 15:21:00,
2013-04-17 08:33:00,39.0,35.0,30.50,ENE,72,2.0,4.0,87,0.00,,,0.01,,2013-04-17 15:33:00,
2013-04-17 08:42:00,39.0,35.0,30.50,ENE,72,2.0,4.0,87,0.00,,,0.01,,2013-04-17 15:42:00,
2013-04-17 08:53:00,42.0,36.0,30.52,ENE,59,4.0,5.0,79,0.00,,,0.01,,2013-04-17 15:53:00,
2013-04-17 09:03:00,42.0,35.0,30.50,ENE,64,3.0,6.0,77,0.00,,,0.01,,2013-04-17 16:03:00,
2013-04-17 09:12:00,44.0,36.0,30.50,ENE,58,3.0,5.0,74,0.00,,,0.01,,2013-04-17 16:12:00,
2013-04-17 09:22:00,44.0,36.0,30.50,ENE,58,3.0,5.0,74,0.00,,,0.01,,2013-04-17 16:22:00,
2013-04-17 09:32:00,45.0,37.0,30.50,SE,133,0.0,4.0,72,0.00,,,0.01,,2013-04-17 16:32:00,
2013-04-17 09:41:00,45.0,37.0,30.50,SE,133,0.0,4.0,72,0.00,,,0.01,,2013-04-17 16:41:00,
2013-04-17 09:52:00,46.0,36.0,30.50,SE,137,2.0,3.0,69,0.00,,,0.01,,2013-04-17 16:52:00,
2013-04-17 10:02:00,46.0,34.0,30.50,NNE,24,2.0,4.0,63,0.00,,,0.01,,2013-04-17 17:02:00,
2013-04-17 10:11:00,46.0,34.0,30.50,NNE,24,2.0,4.0,63,0.00,,,0.01,,2013-04-17 17:11:00,
2013-04-17 10:22:00,50.0,37.0,30.50,West,272,2.0,4.0,60,0.00,,,0.01,,2013-04-17 17:22:00,
2013-04-17 10:32:00,48.0,38.0,30.50,West,269,2.0,4.0,67,0.00,,,0.01,,2013-04-17 17:32:00,
2013-04-17 10:42:00,48.0,38.0,30.50,West,269,2.0,4.0,67,0.00,,,0.01,,2013-04-17 17:42:00,
2013-04-17 10:52:00,52.0,40.0,30.50,West,271,3.0,5.0,63,0.00,,,0.01,,2013-04-17 17:52:00,
2013-04-17 11:01:00,50.0,39.0,30.50,WNW,289,4.0,6.0,65,0.00,,,0.01,,2013-04-17 18:01:00,
2013-04-17 11:11:00,50.0,39.0,30.50,WNW,289,4.0,6.0,65,0.00,,,0.01,,2013-04-17 18:11:00,
2013-04-17 11:22:00,54.0,40.0,30.50,WSW,239,3.0,6.0,58,0.00,,,0.01,,2013-04-17 18:22:00,
2013-04-17 11:32:00,54.0,40.0,30.50,WNW,282,3.0,6.0,58,0.00,,,0.01,,2013-04-17 18:32:00,
2013-04-17 11:42:00,54.0,40.0,30.50,WNW,282,3.0,6.0,58,0.00,,,0.01,,2013-04-17 18:42:00,
2013-04-17 11:52:00,54.0,38.0,30.50,SE,133,1.0,4.0,55,0.00,,,0.01,,2013-04-17 18:52:00,
2013-04-17 12:02:00,54.0,39.0,30.50,NW,306,5.0,7.0,57,0.00,,,0.01,,2013-04-17 19:02:00,
2013-04-17 12:11:00,54.0,39.0,30.50,NW,306,5.0,7.0,57,0.00,,,0.01,,2013-04-17 19:11:00,
2013-04-17 12:21:00,56.0,40.0,30.50,NNW,339,2.0,5.0,54,0.00,,,0.01,,2013-04-17 19:21:00,
2013-04-17 12:31:00,53.0,39.0,30.50,WSW,242,2.0,8.0,59,0.00,,,0.01,,2013-04-17 19:31:00,
2013-04-17 12:42:00,56.0,39.0,30.48,NW,315,3.0,6.0,53,0.00,,,0.01,,2013-04-17 19:42:00,
2013-04-17 12:52:00,56.0,39.0,30.48,NW,315,3.0,6.0,53,0.00,,,0.01,,2013-04-17 19:52:00,
2013-04-17 13:01:00,57.0,40.0,30.48,WNW,298,3.0,7.0,52,0.00,,,0.01,,2013-04-17 20:01:00,
2013-04-17 13:12:00,57.0,40.0,30.48,WNW,298,3.0,7.0,52,0.00,,,0.01,,2013-04-17 20:12:00,
2013-04-17 13:22:00,57.0,40.0,30.48,NW,310,4.0,8.0,53,0.00,,,0.01,,2013-04-17 20:22:00,
2013-04-17 13:32:00,58.0,40.0,30.47,West,270,3.0,7.0,51,0.00,,,0.01,,2013-04-17 20:32:00,
2013-04-17 13:41:00,58.0,40.0,30.47,West,270,3.0,7.0,51,0.00,,,0.01,,2013-04-17 20:41:00,
2013-04-17 13:52:00,57.0,37.0,30.47,NNE,23,3.0,6.0,47,0.00,,,0.01,,2013-04-17 20:52:00,
2013-04-17 14:02:00,58.0,36.0,30.47,SE,127,1.0,8.0,44,0.00,,,0.01,,2013-04-17 21:02:00,
2013-04-17 14:11:00,58.0,36.0,30.47,SE,127,1.0,8.0,44,0.00,,,0.01,,2013-04-17 21:11:00,
2013-04-17 14:22:00,59.0,39.0,30.47,WNW,292,5.0,11.0,48,0.00,,,0.01,,2013-04-17 21:22:00,
2013-04-17 14:32:00,60.0,38.0,30.47,WNW,290,4.0,10.0,44,0.00,,,0.01,,2013-04-17 21:32:00,
2013-04-17 14:42:00,61.0,38.0,30.47,West,267,4.0,9.0,42,0.00,,,0.01,,2013-04-17 21:42:00,
2013-04-17 14:53:00,61.0,38.0,30.47,West,267,4.0,9.0,42,0.00,,,0.01,,2013-04-17 21:53:00,
2013-04-17 15:02:00,61.0,36.0,30.47,West,272,5.0,10.0,40,0.00,,,0.01,,2013-04-17 22:02:00,
2013-04-17 15:12:00,61.0,36.0,30.47,West,272,5.0,10.0,40,0.00,,,0.01,,2013-04-17 22:12:00,
2013-04-17 15:22:00,61.0,35.0,30.45,WSW,253,3.0,8.0,38,0.00,,,0.01,,2013-04-17 22:22:00,
2013-04-17 15:32:00,61.0,35.0,30.45,WNW,290,7.0,11.0,37,0.00,,,0.01,,2013-04-17 22:32:00,
2013-04-17 15:42:00,61.0,35.0,30.45,West,274,7.0,11.0,37,0.00,,,0.01,,2013-04-17 22:42:00,
2013-04-17 15:53:00,61.0,35.0,30.45,West,274,7.0,11.0,37,0.00,,,0.01,,2013-04-17 22:53:00,
2013-04-17 16:02:00,62.0,35.0,30.45,West,266,7.0,11.0,36,0.00,,,0.01,,2013-04-17 23:02:00,
2013-04-17 16:12:00,62.0,33.0,30.45,WNW,292,7.0,9.0,34,0.00,,,0.01,,2013-04-17 23:12:00,
2013-04-17 16:22:00,62.0,33.0,30.45,WNW,292,7.0,9.0,34,0.00,,,0.01,,2013-04-17 23:22:00,
2013-04-17 16:32:00,62.0,33.0,30.45,WSW,242,5.0,10.0,34,0.00,,,0.01,,2013-04-17 23:32:00,
2013-04-17 16:42:00,61.0,31.0,30.45,West,278,7.0,11.0,32,0.00,,,0.01,,2013-04-17 23:42:00,
2013-04-17 16:52:00,61.0,31.0,30.45,West,278,7.0,11.0,32,0.00,,,0.01,,2013-04-17 23:52:00,
2013-04-17 17:01:00,58.0,33.0,30.45,WNW,298,3.0,9.0,38,0.00,,,0.01,,2013-04-18 00:01:00,
2013-04-17 17:12:00,58.0,35.0,30.45,WNW,289,5.0,9.0,42,0.00,,,0.01,,2013-04-18 00:12:00,
2013-04-17 17:21:00,58.0,35.0,30.45,WNW,289,5.0,9.0,42,0.00,,,0.01,,2013-04-18 00:21:00,
2013-04-17 17:32:00,56.0,36.0,30.45,NW,320,4.0,8.0,46,0.00,,,0.01,,2013-04-18 00:32:00,
2013-04-17 17:42:00,56.0,38.0,30.45,WNW,288,3.0,8.0,50,0.00,,,0.01,,2013-04-18 00:42:00,
2013-04-17 17:52:00,56.0,38.0,30.45,WNW,288,3.0,8.0,50,0.00,,,0.01,,2013-04-18 00:52:00,
2013-04-17 18:01:00,55.0,38.0,30.45,WNW,288,5.0,8.0,52,0.00,,,0.01,,2013-04-18 01:01:00,
2013-04-17 18:11:00,54.0,37.0,30.45,NW,316,3.0,8.0,53,0.00,,,0.01,,2013-04-18 01:11:00,
2013-04-17 18:22:00,54.0,37.0,30.45,NW,316,3.0,8.0,53,0.00,,,0.01,,2013-04-18 01:22:00,
2013-04-17 18:32:00,54.0,37.0,30.45,WNW,295,3.0,7.0,53,0.00,,,0.01,,2013-04-18 01:32:00,
2013-04-17 18:42:00,54.0,38.0,30.45,WNW,294,3.0,7.0,54,0.00,,,0.01,,2013-04-18 01:42:00,
2013-04-17 18:52:00,54.0,38.0,30.45,WNW,294,3.0,7.0,54,0.00,,,0.01,,2013-04-18 01:52:00,
2013-04-17 19:01:00,54.0,38.0,30.45,NW,311,1.0,5.0,55,0.00,,,0.01,,2013-04-18 02:01:00,
2013-04-17 19:12:00,54.0,39.0,30.45,NW,310,0.0,4.0,56,0.00,,,0.01,,2013-04-18 02:12:00,
2013-04-17 19:22:00,54.0,39.0,30.45,NW,310,0.0,4.0,56,0.00,,,0.01,,2013-04-18 02:22:00,
2013-04-17 19:31:00,53.0,38.0,30.45,NW,306,0.0,3.0,57,0.00,,,0.00,,2013-04-18 02:31:00,
2013-04-17 19:41:00,53.0,38.0,30.45,NW,306,0.0,3.0,57,0.00,,,0.00,,2013-04-18 02:41:00,
2013-04-17 19:52:00,53.0,38.0,30.45,NW,306,0.0,3.0,57,0.00,,,0.00,,2013-04-18 02:52:00,
2013-04-17 20:01:00,52.0,38.0,30.45,WNW,285,0.0,3.0,59,0.00,,,0.00,,2013-04-18 03:01:00,
2013-04-17 20:11:00,50.0,39.0,30.45,SE,130,0.0,0.0,67,0.00,,,0.00,,2013-04-18 03:11:00,
2013-04-17 20:21:00,50.0,39.0,30.45,SE,130,0.0,0.0,67,0.00,,,0.00,,2013-04-18 03:21:00,
2013-04-17 20:33:00,49.0,40.0,30.45,ESE,109,0.0,0.0,72,0.00,,,0.00,,2013-04-18 03:33:00,
2013-04-17 20:42:00,48.0,40.0,30.45,NE,34,0.0,0.0,74,0.00,,,0.00,,2013-04-18 03:42:00,
2013-04-17 20:53:00,48.0,40.0,30.45,NE,34,0.0,0.0,74,0.00,,,0.00,,2013-04-18 03:53:00,
2013-04-17 21:03:00,48.0,41.0,30.45,NNW,348,0.0,0.0,76,0.00,,,0.00,,2013-04-18 04:03:00,
2013-04-17 21:13:00,48.0,41.0,30.45,NNW,348,0.0,0.0,76,0.00,,,0.00,,2013-04-18 04:13:00,
2013-04-17 21:23:00,47.0,40.0,30.45,ESE,119,0.0,0.0,77,0.00,,,0.00,,2013-04-18 04:23:00,
2013-04-17 21:32:00,47.0,41.0,30.47,ENE,67,0.0,0.0,79,0.00,,,0.00,,2013-04-18 04:32:00,
2013-04-17 21:43:00,47.0,41.0,30.47,NE,53,0.0,0.0,81,0.00,,,0.00,,2013-04-18 04:43:00,
2013-04-17 21:53:00,47.0,41.0,30.47,NE,53,0.0,0.0,81,0.00,,,0.00,,2013-04-18 04:53:00,
2013-04-17 22:02:00,47.0,41.0,30.47,SW,231,1.0,2.0,81,0.00,,,0.00,,2013-04-18 05:02:00,
2013-04-17 22:12:00,48.0,41.0,30.47,SW,233,1.0,4.0,77,0.00,,,0.00,,2013-04-18 05:12:00,
2013-04-17 22:21:00,48.0,41.0,30.47,SW,233,1.0,4.0,77,0.00,,,0.00,,2013-04-18 05:21:00,
2013-04-17 22:32:00,47.0,39.0,30.47,SW,218,2.0,4.0,74,0.00,,,0.00,,2013-04-18 05:32:00,
2013-04-17 22:42:00,47.0,39.0,30.47,South,185,1.0,6.0,74,0.00,,,0.00,,2013-04-18 05:42:00,
2013-04-17 22:52:00,47.0,39.0,30.47,South,185,1.0,6.0,74,0.00,,,0.00,,2013-04-18 05:52:00,
2013-04-17 23:01:00,46.0,38.0,30.47,SSW,202,2.0,7.0,73,0.00,,,0.00,,2013-04-18 06:01:00,
2013-04-17 23:12:00,46.0,38.0,30.47,SSW,202,2.0,7.0,73,0.00,,,0.00,,2013-04-18 06:12:00,
2013-04-17 23:21:00,46.0,38.0,30.47,SW,224,1.0,5.0,73,0.00,,,0.00,,2013-04-18 06:21:00,
2013-04-17 23:31:00,46.0,38.0,30.45,West,261,1.0,3.0,74,0.00,,,0.00,,2013-04-18 06:31:00,
2013-04-17 23:42:00,46.0,38.0,30.45,NNE,24,0.0,3.0,74,0.00,,,0.00,,2013-04-18 06:42:00,
2013-04-17 23:52:00,46.0,38.0,30.45,NNE,24,0.0,3.0,74,0.00,,,0.00,,2013-04-18 06:52:00,